sensor_id;sensor_type;location;lat;lon;timestamp;pressure;altitude;pressure_sealevel;temperature;humidity
33506;BME280;19843;51.040;13.782;2023-04-01T00:01:48;98520.78;;;11.35;82.26
33506;BME280;19843;51.040;13.782;2023-04-01T00:04:15;98527.63;;;11.47;82.25
33506;BME280;19843;51.040;13.782;2023-04-01T00:06:43;98526.84;;;11.55;82.49
33506;BME280;19843;51.040;13.782;2023-04-01T00:09:10;98518.56;;;11.48;82.55
33506;BME280;19843;51.040;13.782;2023-04-01T00:11:37;98520.41;;;11.29;83.50
33506;BME280;19843;51.040;13.782;2023-04-01T00:14:04;98520.09;;;11.33;83.28
33506;BME280;19843;51.040;13.782;2023-04-01T00:16:33;98522.25;;;11.29;83.23
33506;BME280;19843;51.040;13.782;2023-04-01T00:19:01;98524.06;;;11.28;83.24
33506;BME280;19843;51.040;13.782;2023-04-01T00:21:28;98523.53;;;11.43;82.38
33506;BME280;19843;51.040;13.782;2023-04-01T00:23:55;98517.81;;;11.38;83.05
33506;BME280;19843;51.040;13.782;2023-04-01T00:26:23;98521.78;;;11.34;83.19
33506;BME280;19843;51.040;13.782;2023-04-01T00:28:51;98515.13;;;11.38;82.40
33506;BME280;19843;51.040;13.782;2023-04-01T00:31:19;98520.53;;;11.46;82.76
33506;BME280;19843;51.040;13.782;2023-04-01T00:33:47;98516.09;;;11.37;82.62
33506;BME280;19843;51.040;13.782;2023-04-01T00:36:16;98512.34;;;11.47;81.85
33506;BME280;19843;51.040;13.782;2023-04-01T00:38:43;98522.03;;;11.40;82.62
33506;BME280;19843;51.040;13.782;2023-04-01T00:41:12;98524.28;;;11.35;82.34
33506;BME280;19843;51.040;13.782;2023-04-01T00:43:40;98525.16;;;11.36;82.83
33506;BME280;19843;51.040;13.782;2023-04-01T00:46:08;98519.16;;;11.42;82.58
33506;BME280;19843;51.040;13.782;2023-04-01T00:48:36;98522.25;;;11.47;82.40
33506;BME280;19843;51.040;13.782;2023-04-01T00:51:06;98523.78;;;11.32;82.25
33506;BME280;19843;51.040;13.782;2023-04-01T00:53:36;98528.06;;;11.42;83.51
33506;BME280;19843;51.040;13.782;2023-04-01T00:56:05;98527.66;;;11.37;83.43
33506;BME280;19843;51.040;13.782;2023-04-01T00:58:35;98526.13;;;11.17;84.05
33506;BME280;19843;51.040;13.782;2023-04-01T01:01:05;98529.59;;;11.27;83.90
33506;BME280;19843;51.040;13.782;2023-04-01T01:03:33;98525.84;;;11.20;85.10
33506;BME280;19843;51.040;13.782;2023-04-01T01:09:01;98516.56;;;11.14;84.50
33506;BME280;19843;51.040;13.782;2023-04-01T01:11:35;98516.94;;;11.37;84.41
33506;BME280;19843;51.040;13.782;2023-04-01T01:14:10;98518.94;;;11.35;84.15
33506;BME280;19843;51.040;13.782;2023-04-01T01:16:43;98512.34;;;11.12;85.18
33506;BME280;19843;51.040;13.782;2023-04-01T01:19:17;98516.94;;;11.37;84.27
33506;BME280;19843;51.040;13.782;2023-04-01T01:22:02;98508.88;;;11.19;84.52
33506;BME280;19843;51.040;13.782;2023-04-01T01:24:50;98511.56;;;11.19;82.63
33506;BME280;19843;51.040;13.782;2023-04-01T01:27:20;98509.22;;;11.34;82.14
33506;BME280;19843;51.040;13.782;2023-04-01T01:30:00;98507.13;;;11.28;81.40
33506;BME280;19843;51.040;13.782;2023-04-01T01:32:39;98513.03;;;11.49;81.29
33506;BME280;19843;51.040;13.782;2023-04-01T01:35:15;98509.19;;;11.52;81.06
33506;BME280;19843;51.040;13.782;2023-04-01T01:37:43;98517.72;;;11.47;80.91
33506;BME280;19843;51.040;13.782;2023-04-01T01:40:13;98513.50;;;11.45;81.06
33506;BME280;19843;51.040;13.782;2023-04-01T01:42:43;98517.41;;;11.33;81.69
33506;BME280;19843;51.040;13.782;2023-04-01T01:45:12;98522.53;;;11.26;82.40
33506;BME280;19843;51.040;13.782;2023-04-01T01:47:43;98522.25;;;11.29;81.84
33506;BME280;19843;51.040;13.782;2023-04-01T01:50:12;98520.50;;;11.20;82.10
33506;BME280;19843;51.040;13.782;2023-04-01T01:52:42;98523.78;;;11.32;82.12
33506;BME280;19843;51.040;13.782;2023-04-01T01:55:23;98528.78;;;11.26;81.84
33506;BME280;19843;51.040;13.782;2023-04-01T01:57:51;98520.25;;;11.13;81.79
33506;BME280;19843;51.040;13.782;2023-04-01T02:00:18;98520.31;;;11.39;81.39
33506;BME280;19843;51.040;13.782;2023-04-01T02:02:47;98526.28;;;11.33;81.17
33506;BME280;19843;51.040;13.782;2023-04-01T02:05:16;98521.09;;;11.14;81.46
33506;BME280;19843;51.040;13.782;2023-04-01T02:07:46;98520.72;;;11.26;81.53
33506;BME280;19843;51.040;13.782;2023-04-01T02:10:15;98514.19;;;11.29;81.51
33506;BME280;19843;51.040;13.782;2023-04-01T02:12:43;98520.53;;;11.28;81.39
33506;BME280;19843;51.040;13.782;2023-04-01T02:15:12;98515.56;;;11.33;80.80
33506;BME280;19843;51.040;13.782;2023-04-01T02:17:42;98526.47;;;11.32;80.92
33506;BME280;19843;51.040;13.782;2023-04-01T02:20:11;98518.78;;;11.19;80.69
33506;BME280;19843;51.040;13.782;2023-04-01T02:22:41;98515.88;;;11.30;80.62
33506;BME280;19843;51.040;13.782;2023-04-01T02:25:12;98522.16;;;11.39;80.67
33506;BME280;19843;51.040;13.782;2023-04-01T02:27:40;98522.31;;;11.19;80.58
33506;BME280;19843;51.040;13.782;2023-04-01T02:30:09;98518.94;;;11.35;80.50
33506;BME280;19843;51.040;13.782;2023-04-01T02:32:37;98529.06;;;11.41;79.80
33506;BME280;19843;51.040;13.782;2023-04-01T02:35:05;98520.53;;;11.28;80.50
33506;BME280;19843;51.040;13.782;2023-04-01T02:37:33;98531.22;;;11.20;80.25
33506;BME280;19843;51.040;13.782;2023-04-01T02:40:04;98530.91;;;11.23;80.75
33506;BME280;19843;51.040;13.782;2023-04-01T02:42:34;98524.00;;;11.38;79.97
33506;BME280;19843;51.040;13.782;2023-04-01T02:45:02;98531.91;;;11.22;80.05
33506;BME280;19843;51.040;13.782;2023-04-01T02:47:29;98536.13;;;11.24;80.88
33506;BME280;19843;51.040;13.782;2023-04-01T02:49:57;98530.28;;;11.29;79.84
33506;BME280;19843;51.040;13.782;2023-04-01T02:52:24;98540.63;;;11.24;79.91
33506;BME280;19843;51.040;13.782;2023-04-01T02:54:52;98529.97;;;11.32;79.89
33506;BME280;19843;51.040;13.782;2023-04-01T02:57:19;98535.19;;;11.16;79.75
33506;BME280;19843;51.040;13.782;2023-04-01T02:59:48;98534.28;;;11.25;79.81
33506;BME280;19843;51.040;13.782;2023-04-01T03:02:16;98539.56;;;11.35;79.54
33506;BME280;19843;51.040;13.782;2023-04-01T03:04:43;98545.25;;;11.32;79.36
33506;BME280;19843;51.040;13.782;2023-04-01T03:07:11;98539.16;;;11.12;79.71
33506;BME280;19843;51.040;13.782;2023-04-01T03:09:39;98548.97;;;11.21;79.42
33506;BME280;19843;51.040;13.782;2023-04-01T03:12:06;98546.44;;;11.19;79.83
33506;BME280;19843;51.040;13.782;2023-04-01T03:14:34;98553.19;;;11.23;79.45
33506;BME280;19843;51.040;13.782;2023-04-01T03:17:02;98549.28;;;11.18;79.99
33506;BME280;19843;51.040;13.782;2023-04-01T03:19:30;98544.16;;;11.24;79.12
33506;BME280;19843;51.040;13.782;2023-04-01T03:21:57;98550.97;;;11.19;79.36
33506;BME280;19843;51.040;13.782;2023-04-01T03:24:24;98545.84;;;11.25;79.23
33506;BME280;19843;51.040;13.782;2023-04-01T03:26:51;98549.91;;;11.29;79.05
33506;BME280;19843;51.040;13.782;2023-04-01T03:29:19;98552.38;;;11.23;79.24
33506;BME280;19843;51.040;13.782;2023-04-01T03:31:46;98555.13;;;11.31;79.75
33506;BME280;19843;51.040;13.782;2023-04-01T03:34:14;98546.72;;;10.98;79.97
33506;BME280;19843;51.040;13.782;2023-04-01T03:36:42;98551.63;;;11.03;79.46
33506;BME280;19843;51.040;13.782;2023-04-01T03:39:09;98552.22;;;11.24;79.26
33506;BME280;19843;51.040;13.782;2023-04-01T03:41:36;98554.94;;;11.15;78.50
33506;BME280;19843;51.040;13.782;2023-04-01T03:44:04;98565.78;;;11.23;78.79
33506;BME280;19843;51.040;13.782;2023-04-01T03:46:31;98559.19;;;11.17;78.83
33506;BME280;19843;51.040;13.782;2023-04-01T03:48:59;98562.84;;;11.16;79.00
33506;BME280;19843;51.040;13.782;2023-04-01T03:51:27;98564.56;;;11.17;78.77
33506;BME280;19843;51.040;13.782;2023-04-01T03:53:55;98565.53;;;11.16;78.62
33506;BME280;19843;51.040;13.782;2023-04-01T03:56:22;98563.09;;;11.23;78.20
33506;BME280;19843;51.040;13.782;2023-04-01T03:58:49;98577.13;;;11.35;77.99
33506;BME280;19843;51.040;13.782;2023-04-01T04:01:18;98573.69;;;11.24;78.25
33506;BME280;19843;51.040;13.782;2023-04-01T04:03:46;98574.72;;;11.14;78.44
33506;BME280;19843;51.040;13.782;2023-04-01T04:06:16;98572.75;;;11.16;78.56
33506;BME280;19843;51.040;13.782;2023-04-01T04:08:45;98578.56;;;11.11;77.70
33506;BME280;19843;51.040;13.782;2023-04-01T04:11:12;98578.88;;;11.26;77.75
33506;BME280;19843;51.040;13.782;2023-04-01T04:13:39;98576.19;;;11.26;77.62
33506;BME280;19843;51.040;13.782;2023-04-01T04:16:07;98570.13;;;11.24;77.19
33506;BME280;19843;51.040;13.782;2023-04-01T04:18:35;98577.19;;;11.25;77.69
33506;BME280;19843;51.040;13.782;2023-04-01T04:21:03;98585.63;;;11.30;77.02
33506;BME280;19843;51.040;13.782;2023-04-01T04:23:30;98586.78;;;11.27;76.92
33506;BME280;19843;51.040;13.782;2023-04-01T04:26:02;98589.38;;;11.37;76.97
33506;BME280;19843;51.040;13.782;2023-04-01T04:28:29;98592.34;;;11.16;76.79
33506;BME280;19843;51.040;13.782;2023-04-01T04:30:57;98592.84;;;11.29;77.43
33506;BME280;19843;51.040;13.782;2023-04-01T04:33:24;98598.09;;;11.21;76.75
33506;BME280;19843;51.040;13.782;2023-04-01T04:35:54;98594.06;;;11.17;77.14
33506;BME280;19843;51.040;13.782;2023-04-01T04:38:22;98599.25;;;11.19;77.61
33506;BME280;19843;51.040;13.782;2023-04-01T04:40:49;98600.28;;;11.36;76.22
33506;BME280;19843;51.040;13.782;2023-04-01T04:43:18;98600.75;;;11.31;75.90
33506;BME280;19843;51.040;13.782;2023-04-01T04:45:45;98602.09;;;11.35;76.10
33506;BME280;19843;51.040;13.782;2023-04-01T04:48:13;98600.88;;;11.29;75.59
33506;BME280;19843;51.040;13.782;2023-04-01T04:50:44;98608.56;;;11.42;75.79
33506;BME280;19843;51.040;13.782;2023-04-01T04:53:12;98616.31;;;11.45;75.96
33506;BME280;19843;51.040;13.782;2023-04-01T04:55:42;98612.63;;;11.46;75.79
33506;BME280;19843;51.040;13.782;2023-04-01T04:58:09;98613.75;;;11.26;75.96
33506;BME280;19843;51.040;13.782;2023-04-01T05:00:38;98616.38;;;11.36;75.94
33506;BME280;19843;51.040;13.782;2023-04-01T05:03:05;98609.59;;;11.14;75.81
33506;BME280;19843;51.040;13.782;2023-04-01T05:05:33;98610.69;;;11.21;76.45
33506;BME280;19843;51.040;13.782;2023-04-01T05:08:00;98616.75;;;11.23;76.33
33506;BME280;19843;51.040;13.782;2023-04-01T05:10:27;98620.72;;;11.19;76.15
33506;BME280;19843;51.040;13.782;2023-04-01T05:12:55;98622.88;;;11.33;76.00
33506;BME280;19843;51.040;13.782;2023-04-01T05:15:22;98620.88;;;11.35;75.39
33506;BME280;19843;51.040;13.782;2023-04-01T05:17:51;98620.72;;;11.19;75.68
33506;BME280;19843;51.040;13.782;2023-04-01T05:20:19;98621.91;;;11.34;76.34
33506;BME280;19843;51.040;13.782;2023-04-01T05:22:46;98628.56;;;11.30;75.62
33506;BME280;19843;51.040;13.782;2023-04-01T05:25:13;98631.03;;;11.41;76.21
33506;BME280;19843;51.040;13.782;2023-04-01T05:27:41;98622.97;;;11.41;76.34
33506;BME280;19843;51.040;13.782;2023-04-01T05:30:09;98624.03;;;11.31;76.45
33506;BME280;19843;51.040;13.782;2023-04-01T05:32:36;98636.38;;;11.41;76.48
33506;BME280;19843;51.040;13.782;2023-04-01T05:35:05;98628.09;;;11.35;76.28
33506;BME280;19843;51.040;13.782;2023-04-01T05:37:33;98627.84;;;11.28;76.39
33506;BME280;19843;51.040;13.782;2023-04-01T05:40:00;98633.31;;;11.36;76.63
33506;BME280;19843;51.040;13.782;2023-04-01T05:42:28;98629.94;;;11.34;76.32
33506;BME280;19843;51.040;13.782;2023-04-01T05:44:55;98632.94;;;11.49;76.50
33506;BME280;19843;51.040;13.782;2023-04-01T05:47:22;98638.53;;;11.56;76.13
33506;BME280;19843;51.040;13.782;2023-04-01T05:49:50;98640.31;;;11.65;75.62
33506;BME280;19843;51.040;13.782;2023-04-01T05:52:19;98647.53;;;11.64;75.25
33506;BME280;19843;51.040;13.782;2023-04-01T05:54:46;98642.09;;;11.56;76.82
33506;BME280;19843;51.040;13.782;2023-04-01T05:57:13;98644.09;;;11.54;76.31
33506;BME280;19843;51.040;13.782;2023-04-01T05:59:41;98649.50;;;11.62;76.95
33506;BME280;19843;51.040;13.782;2023-04-01T06:02:08;98641.91;;;11.40;77.25
33506;BME280;19843;51.040;13.782;2023-04-01T06:04:37;98653.13;;;11.53;77.39
33506;BME280;19843;51.040;13.782;2023-04-01T06:07:05;98651.91;;;11.65;76.99
33506;BME280;19843;51.040;13.782;2023-04-01T06:09:38;98644.53;;;11.49;76.11
33506;BME280;19843;51.040;13.782;2023-04-01T06:12:10;98649.00;;;11.59;77.47
33506;BME280;19843;51.040;13.782;2023-04-01T06:14:44;98649.47;;;11.72;77.59
33506;BME280;19843;51.040;13.782;2023-04-01T06:17:22;98646.69;;;11.64;78.46
33506;BME280;19843;51.040;13.782;2023-04-01T06:19:53;98650.19;;;11.46;78.79
33506;BME280;19843;51.040;13.782;2023-04-01T06:22:27;98647.84;;;11.61;78.81
33506;BME280;19843;51.040;13.782;2023-04-01T06:25:01;98654.75;;;11.64;78.28
33506;BME280;19843;51.040;13.782;2023-04-01T06:27:36;98656.03;;;11.60;77.19
33506;BME280;19843;51.040;13.782;2023-04-01T06:30:10;98658.59;;;11.61;76.65
33506;BME280;19843;51.040;13.782;2023-04-01T06:32:47;98655.06;;;11.61;75.81
33506;BME280;19843;51.040;13.782;2023-04-01T06:35:21;98657.59;;;11.80;75.87
33506;BME280;19843;51.040;13.782;2023-04-01T06:38:09;98666.00;;;11.95;75.77
33506;BME280;19843;51.040;13.782;2023-04-01T06:40:48;98655.69;;;12.08;75.53
33506;BME280;19843;51.040;13.782;2023-04-01T06:43:18;98651.03;;;11.93;74.40
33506;BME280;19843;51.040;13.782;2023-04-01T06:45:51;98662.94;;;11.90;73.61
33506;BME280;19843;51.040;13.782;2023-04-01T06:48:26;98662.81;;;12.18;73.37
33506;BME280;19843;51.040;13.782;2023-04-01T06:50:58;98670.34;;;12.14;73.14
33506;BME280;19843;51.040;13.782;2023-04-01T06:53:31;98668.44;;;12.24;72.92
33506;BME280;19843;51.040;13.782;2023-04-01T06:56:04;98667.50;;;12.16;72.35
33506;BME280;19843;51.040;13.782;2023-04-01T06:58:34;98666.78;;;12.31;72.22
33506;BME280;19843;51.040;13.782;2023-04-01T07:01:03;98674.38;;;12.36;71.50
33506;BME280;19843;51.040;13.782;2023-04-01T07:03:33;98661.41;;;12.31;72.31
33506;BME280;19843;51.040;13.782;2023-04-01T07:06:02;98667.53;;;12.42;71.20
33506;BME280;19843;51.040;13.782;2023-04-01T07:08:31;98672.06;;;12.41;69.91
33506;BME280;19843;51.040;13.782;2023-04-01T07:11:01;98671.00;;;12.34;70.80
33506;BME280;19843;51.040;13.782;2023-04-01T07:13:32;98667.22;;;12.45;71.05
33506;BME280;19843;51.040;13.782;2023-04-01T07:16:07;98673.88;;;12.59;70.38
33506;BME280;19843;51.040;13.782;2023-04-01T07:18:37;98684.72;;;12.49;69.75
33506;BME280;19843;51.040;13.782;2023-04-01T07:21:09;98673.03;;;12.58;70.58
33506;BME280;19843;51.040;13.782;2023-04-01T07:23:38;98683.94;;;12.57;69.19
33506;BME280;19843;51.040;13.782;2023-04-01T07:26:06;98686.47;;;12.58;69.04
33506;BME280;19843;51.040;13.782;2023-04-01T07:28:40;98692.97;;;12.29;69.96
33506;BME280;19843;51.040;13.782;2023-04-01T07:31:14;98683.88;;;12.48;70.56
33506;BME280;19843;51.040;13.782;2023-04-01T07:33:45;98686.88;;;12.45;70.90
33506;BME280;19843;51.040;13.782;2023-04-01T07:36:19;98687.78;;;12.54;70.03
33506;BME280;19843;51.040;13.782;2023-04-01T07:38:52;98689.72;;;12.44;69.88
33506;BME280;19843;51.040;13.782;2023-04-01T07:41:28;98690.59;;;12.70;69.50
33506;BME280;19843;51.040;13.782;2023-04-01T07:44:04;98702.53;;;12.76;69.68
33506;BME280;19843;51.040;13.782;2023-04-01T07:46:39;98707.72;;;12.69;68.35
33506;BME280;19843;51.040;13.782;2023-04-01T07:49:14;98699.06;;;12.58;68.93
33506;BME280;19843;51.040;13.782;2023-04-01T07:51:43;98692.00;;;12.83;68.34
33506;BME280;19843;51.040;13.782;2023-04-01T07:54:18;98689.00;;;12.86;68.20
33506;BME280;19843;51.040;13.782;2023-04-01T07:56:51;98691.53;;;12.61;69.38
33506;BME280;19843;51.040;13.782;2023-04-01T07:59:24;98701.28;;;12.62;68.55
33506;BME280;19843;51.040;13.782;2023-04-01T08:01:57;98714.38;;;12.83;68.41
33506;BME280;19843;51.040;13.782;2023-04-01T08:04:32;98710.22;;;12.63;68.93
33506;BME280;19843;51.040;13.782;2023-04-01T08:07:06;98711.50;;;12.85;68.55
33506;BME280;19843;51.040;13.782;2023-04-01T08:09:37;98716.25;;;12.91;68.27
33506;BME280;19843;51.040;13.782;2023-04-01T08:12:11;98716.88;;;12.85;68.53
33506;BME280;19843;51.040;13.782;2023-04-01T08:14:45;98719.53;;;12.77;68.39
33506;BME280;19843;51.040;13.782;2023-04-01T08:17:15;98716.59;;;13.22;67.96
33506;BME280;19843;51.040;13.782;2023-04-01T08:19:47;98718.88;;;13.35;67.15
33506;BME280;19843;51.040;13.782;2023-04-01T08:22:20;98720.63;;;13.52;66.61
33506;BME280;19843;51.040;13.782;2023-04-01T08:24:48;98715.28;;;13.69;67.05
33506;BME280;19843;51.040;13.782;2023-04-01T08:27:18;98723.78;;;13.90;66.33
33506;BME280;19843;51.040;13.782;2023-04-01T08:29:50;98711.38;;;13.55;65.46
33506;BME280;19843;51.040;13.782;2023-04-01T08:32:20;98718.34;;;13.82;65.98
33506;BME280;19843;51.040;13.782;2023-04-01T08:34:50;98721.44;;;14.12;64.99
33506;BME280;19843;51.040;13.782;2023-04-01T08:37:23;98716.84;;;13.79;64.81
33506;BME280;19843;51.040;13.782;2023-04-01T08:39:54;98715.13;;;13.70;65.01
33506;BME280;19843;51.040;13.782;2023-04-01T08:43:03;98718.69;;;13.87;65.48
33506;BME280;19843;51.040;13.782;2023-04-01T08:46:19;98727.06;;;13.68;64.31
33506;BME280;19843;51.040;13.782;2023-04-01T08:49:37;98718.34;;;13.74;64.59
33506;BME280;19843;51.040;13.782;2023-04-01T08:52:16;98725.44;;;13.83;64.38
33506;BME280;19843;51.040;13.782;2023-04-01T08:55:01;98732.81;;;13.73;65.65
33506;BME280;19843;51.040;13.782;2023-04-01T08:57:35;98722.69;;;13.67;64.82
33506;BME280;19843;51.040;13.782;2023-04-01T09:00:11;98721.19;;;13.81;65.19
33506;BME280;19843;51.040;13.782;2023-04-01T09:02:47;98727.41;;;13.73;65.01
33506;BME280;19843;51.040;13.782;2023-04-01T09:05:20;98727.63;;;13.79;64.68
33506;BME280;19843;51.040;13.782;2023-04-01T09:07:52;98726.44;;;13.82;65.19
33506;BME280;19843;51.040;13.782;2023-04-01T09:10:36;98711.63;;;13.86;65.42
33506;BME280;19843;51.040;13.782;2023-04-01T09:15:58;98731.59;;;13.59;64.49
33506;BME280;19843;51.040;13.782;2023-04-01T09:21:17;98724.69;;;13.56;64.43
33506;BME280;19843;51.040;13.782;2023-04-01T09:23:55;98731.00;;;13.39;64.74
33506;BME280;19843;51.040;13.782;2023-04-01T09:26:27;98735.22;;;13.42;65.17
33506;BME280;19843;51.040;13.782;2023-04-01T09:29:02;98737.22;;;13.74;64.78
33506;BME280;19843;51.040;13.782;2023-04-01T09:31:39;98733.78;;;13.64;63.81
33506;BME280;19843;51.040;13.782;2023-04-01T09:36:55;98742.03;;;13.62;64.28
33506;BME280;19843;51.040;13.782;2023-04-01T09:39:34;98736.97;;;13.59;64.01
33506;BME280;19843;51.040;13.782;2023-04-01T09:42:16;98731.25;;;13.62;63.61
33506;BME280;19843;51.040;13.782;2023-04-01T09:44:53;98737.56;;;13.79;63.48
33506;BME280;19843;51.040;13.782;2023-04-01T09:47:28;98736.88;;;13.85;63.31
33506;BME280;19843;51.040;13.782;2023-04-01T09:50:10;98732.00;;;13.89;63.14
33506;BME280;19843;51.040;13.782;2023-04-01T09:52:44;98735.94;;;14.27;62.79
33506;BME280;19843;51.040;13.782;2023-04-01T09:55:25;98742.84;;;14.13;62.90
33506;BME280;19843;51.040;13.782;2023-04-01T10:00:51;98740.31;;;14.20;61.96
33506;BME280;19843;51.040;13.782;2023-04-01T10:03:29;98746.34;;;13.97;62.76
33506;BME280;19843;51.040;13.782;2023-04-01T10:06:14;98741.66;;;14.16;62.73
33506;BME280;19843;51.040;13.782;2023-04-01T10:09:15;98738.91;;;13.91;62.43
33506;BME280;19843;51.040;13.782;2023-04-01T10:14:47;98745.44;;;13.81;63.25
33506;BME280;19843;51.040;13.782;2023-04-01T10:17:34;98748.56;;;14.18;62.93
33506;BME280;19843;51.040;13.782;2023-04-01T10:20:09;98752.94;;;14.11;63.56
33506;BME280;19843;51.040;13.782;2023-04-01T10:22:49;98754.94;;;14.01;62.71
33506;BME280;19843;51.040;13.782;2023-04-01T10:25:32;98751.88;;;13.88;62.26
33506;BME280;19843;51.040;13.782;2023-04-01T10:28:12;98749.09;;;14.22;63.07
33506;BME280;19843;51.040;13.782;2023-04-01T10:33:45;98747.72;;;14.18;62.80
33506;BME280;19843;51.040;13.782;2023-04-01T10:39:08;98751.72;;;13.97;62.35
33506;BME280;19843;51.040;13.782;2023-04-01T10:44:36;98748.38;;;14.12;64.09
33506;BME280;19843;51.040;13.782;2023-04-01T10:47:19;98759.13;;;13.95;63.57
33506;BME280;19843;51.040;13.782;2023-04-01T10:53:09;98748.97;;;13.73;62.50
33506;BME280;19843;51.040;13.782;2023-04-01T10:58:33;98747.22;;;14.23;62.16
33506;BME280;19843;51.040;13.782;2023-04-01T11:06:52;98749.63;;;14.42;60.59
33506;BME280;19843;51.040;13.782;2023-04-01T11:09:35;98753.13;;;14.51;61.58
33506;BME280;19843;51.040;13.782;2023-04-01T11:12:17;98753.16;;;14.83;60.87
33506;BME280;19843;51.040;13.782;2023-04-01T11:14:55;98753.25;;;15.23;61.10
33506;BME280;19843;51.040;13.782;2023-04-01T11:20:25;98755.53;;;15.51;60.32
33506;BME280;19843;51.040;13.782;2023-04-01T11:23:00;98755.81;;;15.64;60.28
33506;BME280;19843;51.040;13.782;2023-04-01T11:25:50;98743.94;;;15.81;58.26
33506;BME280;19843;51.040;13.782;2023-04-01T11:33:54;98763.06;;;15.08;62.42
33506;BME280;19843;51.040;13.782;2023-04-01T11:36:29;98758.59;;;15.39;63.34
33506;BME280;19843;51.040;13.782;2023-04-01T11:39:08;98754.53;;;15.52;61.60
33506;BME280;19843;51.040;13.782;2023-04-01T11:41:39;98760.09;;;15.90;60.42
33506;BME280;19843;51.040;13.782;2023-04-01T11:44:11;98761.00;;;15.82;59.69
33506;BME280;19843;51.040;13.782;2023-04-01T11:46:44;98759.88;;;15.60;59.53
33506;BME280;19843;51.040;13.782;2023-04-01T11:49:20;98755.78;;;15.24;60.64
33506;BME280;19843;51.040;13.782;2023-04-01T11:51:54;98754.81;;;15.17;63.05
33506;BME280;19843;51.040;13.782;2023-04-01T11:54:32;98774.41;;;14.87;67.58
33506;BME280;19843;51.040;13.782;2023-04-01T11:57:05;98771.03;;;14.60;72.54
33506;BME280;19843;51.040;13.782;2023-04-01T11:59:38;98770.50;;;14.32;71.47
33506;BME280;19843;51.040;13.782;2023-04-01T12:02:13;98771.22;;;14.58;73.38
33506;BME280;19843;51.040;13.782;2023-04-01T12:04:48;98764.63;;;14.77;72.66
33506;BME280;19843;51.040;13.782;2023-04-01T12:07:27;98757.47;;;15.25;67.73
33506;BME280;19843;51.040;13.782;2023-04-01T12:10:01;98760.19;;;15.73;67.54
33506;BME280;19843;51.040;13.782;2023-04-01T12:12:32;98753.53;;;15.92;66.32
33506;BME280;19843;51.040;13.782;2023-04-01T12:15:10;98752.72;;;16.15;64.25
33506;BME280;19843;51.040;13.782;2023-04-01T12:17:42;98754.22;;;16.17;61.91
33506;BME280;19843;51.040;13.782;2023-04-01T12:20:19;98765.75;;;16.34;61.65
33506;BME280;19843;51.040;13.782;2023-04-01T12:22:49;98764.06;;;15.79;61.72
33506;BME280;19843;51.040;13.782;2023-04-01T12:25:28;98766.94;;;15.77;61.59
33506;BME280;19843;51.040;13.782;2023-04-01T12:28:03;98760.97;;;15.34;61.58
33506;BME280;19843;51.040;13.782;2023-04-01T12:30:42;98759.47;;;15.40;63.95
33506;BME280;19843;51.040;13.782;2023-04-01T12:36:00;98770.31;;;15.07;64.94
33506;BME280;19843;51.040;13.782;2023-04-01T12:38:31;98780.13;;;15.00;67.02
33506;BME280;19843;51.040;13.782;2023-04-01T12:41:07;98760.06;;;14.78;69.77
33506;BME280;19843;51.040;13.782;2023-04-01T12:46:23;98766.97;;;14.48;70.72
33506;BME280;19843;51.040;13.782;2023-04-01T12:48:59;98771.84;;;14.36;69.25
33506;BME280;19843;51.040;13.782;2023-04-01T12:51:34;98774.41;;;14.54;70.98
33506;BME280;19843;51.040;13.782;2023-04-01T12:54:24;98768.69;;;14.81;71.82
33506;BME280;19843;51.040;13.782;2023-04-01T12:57:03;98775.75;;;14.82;71.30
33506;BME280;19843;51.040;13.782;2023-04-01T12:59:41;98776.59;;;14.99;67.57
33506;BME280;19843;51.040;13.782;2023-04-01T13:02:12;98778.78;;;14.96;68.03
33506;BME280;19843;51.040;13.782;2023-04-01T13:04:52;98786.16;;;15.27;68.60
33506;BME280;19843;51.040;13.782;2023-04-01T13:07:26;98779.06;;;15.25;66.21
33506;BME280;19843;51.040;13.782;2023-04-01T13:10:02;98775.63;;;15.48;64.18
33506;BME280;19843;51.040;13.782;2023-04-01T13:12:39;98777.63;;;15.54;63.87
33506;BME280;19843;51.040;13.782;2023-04-01T13:15:18;98776.91;;;15.69;63.50
33506;BME280;19843;51.040;13.782;2023-04-01T13:17:49;98778.03;;;15.82;63.74
33506;BME280;19843;51.040;13.782;2023-04-01T13:20:20;98776.59;;;16.03;62.93
33506;BME280;19843;51.040;13.782;2023-04-01T13:22:56;98780.72;;;15.91;63.48
33506;BME280;19843;51.040;13.782;2023-04-01T13:25:29;98777.19;;;15.90;61.29
33506;BME280;19843;51.040;13.782;2023-04-01T13:28:05;98771.94;;;15.89;63.76
33506;BME280;19843;51.040;13.782;2023-04-01T13:30:34;98781.81;;;15.73;65.12
33506;BME280;19843;51.040;13.782;2023-04-01T13:33:04;98785.00;;;15.69;63.93
33506;BME280;19843;51.040;13.782;2023-04-01T13:35:39;98787.13;;;15.42;63.42
33506;BME280;19843;51.040;13.782;2023-04-01T13:38:15;98784.09;;;15.45;60.66
33506;BME280;19843;51.040;13.782;2023-04-01T13:40:45;98781.81;;;15.65;61.00
33506;BME280;19843;51.040;13.782;2023-04-01T13:43:30;98783.25;;;15.92;60.10
33506;BME280;19843;51.040;13.782;2023-04-01T13:46:22;98782.47;;;15.75;58.83
33506;BME280;19843;51.040;13.782;2023-04-01T13:51:43;98786.69;;;15.70;58.95
33506;BME280;19843;51.040;13.782;2023-04-01T13:54:28;98786.34;;;15.64;59.96
33506;BME280;19843;51.040;13.782;2023-04-01T13:57:06;98775.34;;;15.82;57.96
33506;BME280;19843;51.040;13.782;2023-04-01T13:59:48;98783.09;;;16.17;58.85
33506;BME280;19843;51.040;13.782;2023-04-01T14:02:28;98786.72;;;16.32;56.00
33506;BME280;19843;51.040;13.782;2023-04-01T14:05:06;98789.44;;;16.01;55.32
33506;BME280;19843;51.040;13.782;2023-04-01T14:07:45;98794.16;;;16.07;56.59
33506;BME280;19843;51.040;13.782;2023-04-01T14:10:18;98780.22;;;15.87;56.66
33506;BME280;19843;51.040;13.782;2023-04-01T14:12:48;98791.16;;;15.46;57.00